Time;durP1;ratioP1;P1;durP2;ratioP2;P2;SDS_P1;SDS_P2;PMS_P1;PMS_P2;Temp;Humidity;BMP_temperature;BMP_pressure;BME280_temperature;BME280_humidity;BME280_pressure;Samples;Min_cycle;Max_cycle;Signal;HPM_P1;HPM_P2
2022/05/03 00:03:08;;;;;;;6.18;3.85;;;7.90;99.90;;;;;;4883276;29;20535;-88
2022/05/03 00:06:43;;;;;;;6.40;5.82;;;8.00;99.90;;;;;;4881379;29;20040;-88
2022/05/03 00:10:26;;;;;;;5.93;5.43;;;8.10;99.90;;;;;;4863343;29;20041;-88
2022/05/03 00:14:13;;;;;;;;;;;8.10;99.90;;;;;;4876194;29;20044;-88
2022/05/03 00:23:05;;;;;;;6.03;4.10;;;8.00;99.90;;;;;;4839324;29;20041;-88
2022/05/03 00:26:34;;;;;;;4.22;3.85;;;7.70;99.90;;;;;;4837379;29;20762;-88
2022/05/03 00:29:58;;;;;;;;;;;;;;;;;;;;;
2022/05/03 00:33:11;;;;;;;32.42;8.23;;;7.90;99.90;;;;;;4819079;29;19928;-88
2022/05/03 00:36:55;;;;;;;;;;;;;;;;;;;;;
2022/05/03 00:41:09;;;;;;;12.40;6.13;;;7.70;99.90;;;;;;4906785;29;20059;-88
2022/05/03 00:45:52;;;;;;;73.18;10.98;;;7.40;99.90;;;;;;4808367;29;20058;-88
2022/05/03 00:50:37;;;;;;;135.25;20.25;;;7.40;99.90;;;;;;4858052;29;20412;-88
2022/05/03 00:59:18;;;;;;;62.33;11.27;;;7.00;99.90;;;;;;4856519;29;20047;-88
2022/05/03 01:02:55;;;;;;;27.08;5.78;;;7.20;99.90;;;;;;4862047;29;20052;-88
2022/05/03 01:06:48;;;;;;;35.13;7.57;;;7.00;99.90;;;;;;4845544;29;20052;-88
2022/05/03 01:10:31;;;;;;;9.65;4.60;;;6.90;99.90;;;;;;4837581;29;20057;-87
2022/05/03 01:18:14;;;;;;;80.05;14.15;;;6.90;99.90;;;;;;4887393;29;20052;-88
2022/05/03 01:21:45;;;;;;;90.20;15.52;;;6.90;99.90;;;;;;4812268;29;20045;-88
2022/05/03 01:28:41;;;;;;;6.22;5.60;;;7.10;99.90;;;;;;4927360;29;20545;-87
2022/05/03 01:31:28;;;;;;;5.80;4.57;;;7.20;99.90;;;;;;4944240;28;20046;-87
2022/05/03 01:34:13;;;;;;;7.13;5.10;;;7.30;99.90;;;;;;4916594;29;20039;-88
2022/05/03 01:36:50;;;;;;;11.45;6.88;;;7.40;99.90;;;;;;4947682;28;20051;-88
2022/05/03 01:39:52;;;;;;;15.45;5.10;;;7.50;99.90;;;;;;4937547;28;20624;-88
2022/05/03 01:42:44;;;;;;;88.65;15.43;;;7.40;99.90;;;;;;4949052;28;20049;-88
2022/05/03 01:45:41;;;;;;;3.53;3.13;;;6.90;99.90;;;;;;4962239;28;20039;-88
2022/05/03 01:51:53;;;;;;;43.78;8.20;;;6.40;99.90;;;;;;4959686;28;20039;-89
2022/05/03 01:55:13;;;;;;;46.28;10.02;;;6.40;99.90;;;;;;4934217;28;20058;-88
2022/05/03 01:58:05;;;;;;;3.28;3.08;;;6.20;99.90;;;;;;4944037;28;20042;-88
2022/05/03 02:01:05;;;;;;;4.25;3.85;;;6.30;99.90;;;;;;4945108;28;20082;-87
2022/05/03 02:04:30;;;;;;;6.40;4.35;;;6.40;99.90;;;;;;4960791;28;20046;-88
2022/05/03 02:07:25;;;;;;;39.70;10.10;;;6.50;99.90;;;;;;4959604;28;20046;-88
2022/05/03 02:10:17;;;;;;;10.13;4.88;;;6.50;99.90;;;;;;4960779;28;20379;-88
2022/05/03 02:12:58;;;;;;;4.72;4.35;;;6.50;99.90;;;;;;4960396;28;20046;-87
2022/05/03 02:15:45;;;;;;;3.95;3.55;;;6.50;99.90;;;;;;4927110;28;20055;-88
2022/05/03 02:18:33;;;;;;;4.65;3.83;;;6.60;99.90;;;;;;4958746;28;20046;-88
2022/05/03 02:21:16;;;;;;;4.97;4.13;;;6.70;99.90;;;;;;4961636;28;20066;-87
2022/05/03 02:24:08;;;;;;;4.55;4.15;;;6.70;99.90;;;;;;4960494;28;20850;-88
2022/05/03 02:26:52;;;;;;;4.28;3.92;;;6.80;99.90;;;;;;4960444;28;20060;-87
2022/05/03 02:29:33;;;;;;;6.30;5.47;;;6.60;99.90;;;;;;4961940;28;20054;-87
2022/05/03 02:32:15;;;;;;;137.45;21.13;;;6.60;99.90;;;;;;4943001;28;20043;-88
2022/05/03 02:34:58;;;;;;;64.03;11.50;;;6.30;99.90;;;;;;4959259;28;20474;-88
2022/05/03 02:37:49;;;;;;;30.63;7.05;;;6.00;99.90;;;;;;4959943;28;20055;-88
2022/05/03 02:40:29;;;;;;;21.77;6.35;;;6.00;99.90;;;;;;4930823;29;20071;-87
2022/05/03 02:42:58;;;;;;;4.63;4.22;;;6.00;99.90;;;;;;4949545;28;20047;-87
2022/05/03 02:45:29;;;;;;;63.92;10.23;;;6.10;99.90;;;;;;4939174;28;20052;-87
2022/05/03 02:48:17;;;;;;;13.13;5.43;;;6.20;99.90;;;;;;4933467;29;20047;-88
2022/05/03 02:51:03;;;;;;;4.65;2.63;;;6.20;99.90;;;;;;4946647;28;20055;-89
2022/05/03 02:54:06;;;;;;;124.20;15.75;;;6.10;99.90;;;;;;4932254;29;20058;-88
2022/05/03 02:56:51;;;;;;;53.88;8.85;;;6.00;99.90;;;;;;4951764;28;20052;-87
2022/05/03 03:02:41;;;;;;;8.75;5.72;;;5.70;99.90;;;;;;4948580;28;20055;-88
2022/05/03 03:05:17;;;;;;;22.17;5.10;;;5.70;99.90;;;;;;4948559;29;20043;-88
2022/05/03 03:07:55;;;;;;;3.85;3.25;;;5.60;99.90;;;;;;4946033;28;20410;-88
2022/05/03 03:10:32;;;;;;;3.35;3.15;;;5.70;99.90;;;;;;4948253;28;20043;-88
2022/05/03 03:13:29;;;;;;;4.45;4.05;;;5.70;99.90;;;;;;4949287;28;20054;-87
2022/05/03 03:15:57;;;;;;;3.40;3.20;;;5.70;99.90;;;;;;4947448;28;20499;-88
2022/05/03 03:18:34;;;;;;;4.47;3.55;;;5.80;99.90;;;;;;4943870;28;20043;-87
2022/05/03 03:21:07;;;;;;;9.75;6.72;;;5.80;99.90;;;;;;4948861;28;20066;-87
2022/05/03 03:23:40;;;;;;;46.60;8.85;;;5.80;99.90;;;;;;4948340;28;20537;-88
2022/05/03 03:26:12;;;;;;;115.80;21.20;;;5.90;99.90;;;;;;4931694;28;20047;-88
2022/05/03 03:28:42;;;;;;;8.60;3.17;;;5.90;99.90;;;;;;4950027;28;20054;-87
2022/05/03 03:31:11;;;;;;;42.25;8.75;;;5.60;99.90;;;;;;4948933;28;20791;-88
2022/05/03 03:33:44;;;;;;;16.33;5.05;;;5.60;99.90;;;;;;4949994;28;20491;-87
2022/05/03 03:36:21;;;;;;;53.70;8.02;;;5.70;99.90;;;;;;4948365;28;20379;-88
2022/05/03 03:38:51;;;;;;;38.78;7.60;;;5.80;99.90;;;;;;4919218;28;20047;-88
2022/05/03 03:41:20;;;;;;;4.65;4.32;;;5.80;99.90;;;;;;4955346;28;20053;-87
2022/05/03 03:43:48;;;;;;;4.35;3.95;;;5.90;99.90;;;;;;4988549;28;20057;-87
2022/05/03 03:46:21;;;;;;;5.50;4.93;;;6.00;99.90;;;;;;4967881;28;20729;-88
2022/05/03 03:48:51;;;;;;;7.65;4.38;;;6.20;99.90;;;;;;4986610;28;20042;-88
2022/05/03 03:51:20;;;;;;;33.55;5.32;;;5.90;99.90;;;;;;4969568;28;20045;-87
2022/05/03 03:54:23;;;;;;;;;;;;;;;;;;;;;
2022/05/03 03:57:43;;;;;;;5.30;4.60;;;5.60;99.90;;;;;;4896098;29;20053;-86
2022/05/03 04:00:14;;;;;;;4.05;3.42;;;5.70;99.90;;;;;;4879543;29;20064;-88
2022/05/03 04:02:44;;;;;;;5.20;4.03;;;5.90;99.90;;;;;;4886062;29;20048;-87
2022/05/03 04:05:19;;;;;;;4.93;4.47;;;6.00;99.90;;;;;;4902190;29;20775;-87
2022/05/03 04:07:47;;;;;;;6.25;4.57;;;6.00;99.90;;;;;;4917469;29;20047;-87
2022/05/03 04:10:16;;;;;;;6.03;5.30;;;6.10;99.90;;;;;;4937350;28;20051;-87
2022/05/03 04:12:44;;;;;;;4.18;3.78;;;6.20;99.90;;;;;;4918589;29;20495;-87
2022/05/03 04:15:22;;;;;;;5.38;4.50;;;6.40;99.90;;;;;;4905369;29;20510;-88
2022/05/03 04:17:50;;;;;;;8.65;5.47;;;6.50;99.90;;;;;;4918748;29;20410;-87
2022/05/03 04:20:19;;;;;;;10.75;8.20;;;6.60;99.90;;;;;;4904914;29;20051;-88
2022/05/03 04:22:54;;;;;;;12.80;6.80;;;6.70;99.90;;;;;;4932774;29;20887;-87
2022/05/03 04:25:23;;;;;;;9.88;6.82;;;6.70;99.90;;;;;;4920035;29;20415;-87
2022/05/03 04:27:54;;;;;;;30.15;13.80;;;6.80;99.90;;;;;;4959831;28;20042;-88
2022/05/03 04:30:22;;;;;;;28.73;12.23;;;6.90;99.90;;;;;;4964469;28;20808;-88
2022/05/03 04:32:52;;;;;;;39.95;14.05;;;6.90;99.90;;;;;;4955000;28;20042;-88
2022/05/03 04:35:22;;;;;;;33.80;14.30;;;6.80;99.90;;;;;;4964198;28;20050;-88
2022/05/03 04:38:53;;;;;;;15.88;7.32;;;6.70;99.90;;;;;;4927660;28;20053;-88
2022/05/03 04:41:21;;;;;;;31.52;9.90;;;6.70;99.90;;;;;;4955230;28;20402;-88
2022/05/03 04:43:58;;;;;;;110.90;22.75;;;6.70;99.90;;;;;;4988251;28;20061;-87
2022/05/03 04:46:26;;;;;;;69.07;15.50;;;6.50;99.90;;;;;;4981286;28;20050;-87
2022/05/03 04:49:14;;;;;;;48.70;12.53;;;6.40;99.90;;;;;;4952355;28;20449;-87
2022/05/03 04:51:55;;;;;;;10.27;4.00;;;6.30;99.90;;;;;;4935329;28;20293;-88
2022/05/03 04:54:29;;;;;;;29.52;5.30;;;6.40;99.90;;;;;;4944948;28;20381;-84
2022/05/03 04:57:33;;;;;;;4.40;3.20;;;6.70;99.90;;;;;;4970915;28;20494;-86
2022/05/03 05:04:39;;;;;;;5.38;4.22;;;7.20;99.90;;;;;;4885838;29;20044;-86
2022/05/03 05:08:14;;;;;;;3.42;3.03;;;7.80;99.90;;;;;;4902019;29;20059;-88
2022/05/03 05:11:06;;;;;;;12.73;5.60;;;8.30;99.90;;;;;;4969747;28;20572;-90
2022/05/03 05:13:58;;;;;;;5.18;4.68;;;8.40;99.90;;;;;;4951265;28;20051;-88
2022/05/03 05:16:44;;;;;;;4.60;4.20;;;8.80;99.90;;;;;;4970381;28;20058;-86
2022/05/03 05:19:37;;;;;;;2.95;2.75;;;9.30;99.90;;;;;;4959075;28;20054;-88
2022/05/03 05:22:36;;;;;;;5.55;4.50;;;9.40;99.90;;;;;;4952277;28;20054;-89
2022/05/03 05:25:09;;;;;;;5.28;4.78;;;10.00;99.90;;;;;;4954844;28;20053;-85
2022/05/03 05:28:40;;;;;;;4.28;3.35;;;10.50;99.90;;;;;;4938075;28;20050;-86
2022/05/03 05:31:34;;;;;;;4.07;3.78;;;11.10;99.90;;;;;;4956810;28;20038;-85
2022/05/03 05:34:21;;;;;;;8.13;4.35;;;11.60;99.90;;;;;;4951182;28;20053;-87
2022/05/03 05:37:01;;;;;;;6.25;4.47;;;11.90;99.90;;;;;;4969642;28;20050;-86
2022/05/03 05:39:35;;;;;;;7.22;4.75;;;11.90;99.90;;;;;;4947180;28;20055;-84
2022/05/03 05:42:03;;;;;;;6.88;3.42;;;11.70;99.90;;;;;;4950069;28;20054;-86
2022/05/03 05:44:38;;;;;;;5.10;4.60;;;11.80;99.90;;;;;;4933585;28;20533;-86
2022/05/03 05:47:13;;;;;;;5.68;3.53;;;12.00;99.90;;;;;;4941896;28;20059;-84
2022/05/03 05:49:41;;;;;;;4.72;3.38;;;12.20;99.90;;;;;;4949139;28;20698;-85
2022/05/03 05:54:55;;;;;;;6.45;5.82;;;12.20;99.90;;;;;;4964987;28;20395;-85
2022/05/03 05:57:24;;;;;;;4.55;4.15;;;12.30;99.90;;;;;;4947040;28;20054;-85
2022/05/03 05:59:52;;;;;;;6.45;3.60;;;12.50;99.90;;;;;;4966938;28;20405;-86
2022/05/03 06:02:22;;;;;;;4.85;3.58;;;12.90;99.90;;;;;;4963621;28;20144;-86
2022/05/03 06:04:57;;;;;;;7.30;3.72;;;13.30;99.90;;;;;;4949865;28;20059;-86
2022/05/03 06:07:35;;;;;;;6.15;3.95;;;13.50;99.90;;;;;;4949093;28;20066;-85
2022/05/03 06:10:04;;;;;;;4.03;3.10;;;13.70;99.90;;;;;;4930607;28;20736;-85
2022/05/03 06:12:33;;;;;;;2.58;2.38;;;14.10;99.90;;;;;;4955251;28;20063;-85
2022/05/03 06:15:10;;;;;;;4.05;2.38;;;14.50;99.90;;;;;;4942458;28;20061;-85
2022/05/03 06:17:40;;;;;;;3.25;2.60;;;14.70;99.90;;;;;;4947357;28;20069;-87
2022/05/03 06:20:13;;;;;;;4.68;2.65;;;15.00;99.90;;;;;;4948608;28;20422;-86
2022/05/03 06:22:54;;;;;;;4.93;3.40;;;15.10;99.90;;;;;;4955643;28;20047;-87
2022/05/03 06:25:47;;;;;;;2.78;2.17;;;15.20;99.90;;;;;;4964324;28;20043;-86
2022/05/03 06:28:19;;;;;;;4.38;2.85;;;15.40;99.90;;;;;;4929581;28;20058;-87
2022/05/03 06:31:09;;;;;;;4.65;3.63;;;15.50;99.90;;;;;;4959009;28;20043;-87
2022/05/03 06:33:43;;;;;;;3.85;2.17;;;15.80;99.90;;;;;;4969535;28;20055;-85
2022/05/03 06:36:20;;;;;;;4.10;2.47;;;15.80;99.90;;;;;;4937506;28;20055;-87
2022/05/03 06:39:58;;;;;;;;;;;;;;;;;;;;;
2022/05/03 07:33:28;;;;;;;3.20;2.95;;;13.40;99.90;;;;;;4908793;29;20078;-89
2022/05/03 07:36:06;;;;;;;5.60;2.38;;;13.30;99.90;;;;;;4947952;28;20043;-89
2022/05/03 07:38:37;;;;;;;2.78;2.58;;;13.40;99.90;;;;;;4946793;28;20058;-88
2022/05/03 07:41:37;;;;;;;3.30;3.03;;;13.60;99.90;;;;;;4938181;28;20502;-92
2022/05/03 07:44:06;;;;;;;;;;;13.80;99.90;;;;;;4950005;28;20059;-78
2022/05/03 07:46:34;;;;;;;4.40;3.17;;;14.10;99.90;;;;;;4940421;28;19930;-80
2022/05/03 07:49:09;;;;;;;2.20;2.03;;;14.40;99.90;;;;;;4950053;28;20050;-80
2022/05/03 07:51:52;;;;;;;2.47;2.17;;;14.30;99.90;;;;;;4951181;28;20050;-81
2022/05/03 07:54:22;;;;;;;2.00;1.90;;;14.20;99.90;;;;;;4939810;28;20287;-81
2022/05/03 07:56:55;;;;;;;3.42;2.25;;;14.00;99.90;;;;;;4967144;28;20046;-81
2022/05/03 07:59:25;;;;;;;2.25;2.05;;;14.10;99.90;;;;;;4948787;28;20055;-81
2022/05/03 08:01:55;;;;;;;;;;;14.60;99.90;;;;;;4953013;28;20054;-81
2022/05/03 08:04:28;;;;;;;3.03;2.83;;;14.70;99.90;;;;;;4936710;28;19932;-81
2022/05/03 08:06:56;;;;;;;2.30;2.10;;;14.90;99.90;;;;;;4964401;28;20105;-82
2022/05/03 08:09:25;;;;;;;2.92;2.38;;;15.00;99.90;;;;;;4968651;28;20062;-81
2022/05/03 08:11:56;;;;;;;2.15;1.92;;;15.30;99.90;;;;;;4966895;28;20043;-82
2022/05/03 08:14:42;;;;;;;1.80;1.70;;;15.50;99.90;;;;;;4934461;28;20053;-88
2022/05/03 08:17:50;;;;;;;;;;;;;;;;;;;;;
2022/05/03 08:20:52;;;;;;;3.47;2.80;;;16.30;99.90;;;;;;4950703;28;20082;-89
2022/05/03 08:23:46;;;;;;;2.53;2.23;;;15.90;99.90;;;;;;4936258;28;20058;-89
2022/05/03 08:26:42;;;;;;;2.45;1.90;;;15.70;99.90;;;;;;4924927;28;20050;-88
2022/05/03 08:29:15;;;;;;;5.80;2.38;;;16.20;99.90;;;;;;4918397;29;20055;-88
2022/05/03 08:32:13;;;;;;;2.42;2.22;;;16.10;99.90;;;;;;4921095;29;20545;-88
2022/05/03 08:34:43;;;;;;;2.10;2.00;;;15.30;99.90;;;;;;4938126;28;20055;-88
2022/05/03 08:43:31;;;;;;;2.00;1.90;;;15.90;99.90;;;;;;4948743;28;20074;-88
2022/05/03 08:46:01;;;;;;;1.80;1.70;;;16.40;99.90;;;;;;4906755;29;20574;-90
2022/05/03 08:48:33;;;;;;;2.22;1.80;;;16.20;99.90;;;;;;4915160;29;20143;-88
2022/05/03 08:51:02;;;;;;;2.88;1.95;;;15.90;99.90;;;;;;4909721;29;20047;-88
2022/05/03 08:53:35;;;;;;;2.30;2.10;;;15.10;99.90;;;;;;4881082;29;20063;-88
2022/05/03 08:56:05;;;;;;;2.20;2.05;;;14.70;99.90;;;;;;4897028;29;20059;-88
2022/05/03 08:58:39;;;;;;;3.17;2.40;;;14.50;99.90;;;;;;4913470;29;20055;-88
2022/05/03 09:01:10;;;;;;;2.63;2.42;;;15.00;99.90;;;;;;4930095;29;20050;-88
2022/05/03 09:03:47;;;;;;;3.10;2.90;;;15.60;99.90;;;;;;4895584;29;20040;-89
2022/05/03 09:07:27;;;;;;;2.13;1.92;;;16.20;99.90;;;;;;4919354;28;20051;-91
2022/05/03 09:10:46;;;;;;;2.70;1.92;;;16.50;99.90;;;;;;4903151;28;20058;-91
2022/05/03 09:19:41;;;;;;;4.72;3.05;;;16.10;99.90;;;;;;4802047;29;20051;-88
2022/05/03 09:27:34;;;;;;;2.28;2.08;;;16.30;99.90;;;;;;4844513;29;20045;-87
2022/05/03 09:56:50;;;;;;;1.50;1.40;;;14.70;99.90;;;;;;4921364;29;20047;-84
2022/05/03 09:59:19;;;;;;;1.83;1.58;;;14.60;99.90;;;;;;4934890;28;20047;-84
2022/05/03 10:01:48;;;;;;;2.05;1.85;;;14.60;99.90;;;;;;5005815;28;20512;-84
2022/05/03 10:04:19;;;;;;;1.23;1.13;;;14.60;99.90;;;;;;4994290;28;20057;-85
2022/05/03 10:06:52;;;;;;;1.80;1.70;;;14.60;99.90;;;;;;4992829;28;20045;-85
2022/05/03 10:09:21;;;;;;;2.95;1.77;;;14.60;99.90;;;;;;5009458;28;20045;-84
2022/05/03 10:11:50;;;;;;;1.58;1.48;;;14.70;99.90;;;;;;4993075;28;20049;-85
2022/05/03 10:14:19;;;;;;;2.22;2.03;;;14.70;99.90;;;;;;4990771;28;20046;-85
2022/05/03 10:22:24;;;;;;;2.70;1.67;;;14.90;99.90;;;;;;4973263;28;20058;-87
2022/05/03 10:24:56;;;;;;;4.82;2.20;;;15.10;99.90;;;;;;4981353;28;20054;-88
2022/05/03 10:27:28;;;;;;;1.27;1.17;;;15.10;99.90;;;;;;5008784;28;20046;-88
2022/05/03 10:30:20;;;;;;;2.65;1.33;;;15.20;99.90;;;;;;4991964;28;20050;-87
2022/05/03 10:33:19;;;;;;;1.50;1.40;;;15.30;99.90;;;;;;4992704;28;20080;-88
2022/05/03 10:35:50;;;;;;;8.45;2.15;;;15.80;99.90;;;;;;4989224;28;20038;-88
2022/05/03 10:38:43;;;;;;;1.60;1.50;;;16.50;99.90;;;;;;5007440;28;20045;-88
2022/05/03 10:41:13;;;;;;;3.15;1.40;;;16.60;99.90;;;;;;4976147;28;20394;-88
2022/05/03 10:43:42;;;;;;;;;;;16.60;99.90;;;;;;4986636;28;20049;-89
2022/05/03 10:46:12;;;;;;;10.27;1.85;;;16.40;99.90;;;;;;4994890;28;20373;-86
2022/05/03 10:48:41;;;;;;;2.43;1.60;;;16.50;99.90;;;;;;5007537;28;20054;-83
2022/05/03 10:51:12;;;;;;;1.65;1.55;;;16.50;99.90;;;;;;4979242;28;20046;-83
2022/05/03 10:53:41;;;;;;;2.35;1.77;;;16.50;99.90;;;;;;4987504;28;20065;-82
2022/05/03 10:56:18;;;;;;;2.00;1.88;;;16.60;99.90;;;;;;4988522;28;20039;-85
2022/05/03 10:59:07;;;;;;;2.20;2.00;;;16.90;99.90;;;;;;4981596;28;20043;-83
2022/05/03 11:02:06;;;;;;;3.35;1.60;;;16.90;99.90;;;;;;4975306;28;20062;-88
2022/05/03 11:05:13;;;;;;;2.58;2.38;;;17.20;99.90;;;;;;4952095;28;20054;-89
2022/05/03 11:08:26;;;;;;;2.22;1.98;;;17.20;99.90;;;;;;4955102;28;20054;-90
2022/05/03 11:11:00;;;;;;;2.72;2.22;;;17.30;99.90;;;;;;4943377;28;20050;-91
2022/05/03 11:13:39;;;;;;;2.30;2.08;;;17.30;99.90;;;;;;5001443;28;20054;-92
2022/05/03 11:16:23;;;;;;;1.90;1.80;;;17.30;99.90;;;;;;4949123;28;20042;-90
2022/05/03 11:18:53;;;;;;;7.72;2.40;;;17.40;99.90;;;;;;4987157;28;20047;-80
2022/05/03 11:21:21;;;;;;;2.60;2.40;;;17.50;99.90;;;;;;5001396;28;20050;-80
2022/05/03 11:23:52;;;;;;;1.70;1.60;;;17.20;99.90;;;;;;4987700;28;20808;-90
2022/05/03 11:26:20;;;;;;;;;;;17.30;99.90;;;;;;4975293;28;20093;-90
2022/05/03 11:28:50;;;;;;;3.75;2.47;;;17.30;99.90;;;;;;5005697;28;19925;-89
2022/05/03 11:31:22;;;;;;;2.58;2.17;;;17.10;99.90;;;;;;4971607;28;20050;-88
2022/05/03 11:34:22;;;;;;;3.47;2.75;;;17.20;99.90;;;;;;4988646;28;20409;-83
2022/05/03 11:36:50;;;;;;;2.92;2.58;;;17.80;99.90;;;;;;5003864;28;20046;-88
2022/05/03 11:39:36;;;;;;;3.35;1.98;;;18.20;99.90;;;;;;4987335;28;20576;-88
2022/05/03 11:42:49;;;;;;;2.47;2.28;;;18.50;99.90;;;;;;4970054;28;20034;-86
2022/05/03 11:45:53;;;;;;;1.77;1.67;;;18.40;99.90;;;;;;4971981;28;20823;-88
2022/05/03 11:49:32;;;;;;;4.57;2.33;;;18.50;99.90;;;;;;4999132;28;20057;-83
2022/05/03 11:56:01;;;;;;;3.65;3.30;;;18.00;99.90;;;;;;4969217;28;20055;-84
2022/05/03 11:58:33;;;;;;;2.38;2.17;;;18.30;99.90;;;;;;4966950;28;20042;-85
2022/05/03 12:01:14;;;;;;;2.00;1.90;;;18.70;99.90;;;;;;4969279;28;20058;-84
2022/05/03 12:03:53;;;;;;;2.70;2.50;;;18.40;99.90;;;;;;4967497;28;20414;-83
2022/05/03 12:06:21;;;;;;;4.60;2.70;;;17.90;99.90;;;;;;4955993;28;20050;-84
2022/05/03 12:08:52;;;;;;;2.47;2.28;;;17.40;99.90;;;;;;4957957;28;20065;-83
2022/05/03 12:11:24;;;;;;;3.20;2.13;;;17.20;99.90;;;;;;4975647;28;20061;-84
2022/05/03 12:13:52;;;;;;;2.72;2.53;;;16.90;99.90;;;;;;4966563;28;20043;-81
2022/05/03 12:16:25;;;;;;;2.28;2.17;;;16.80;99.90;;;;;;4967380;28;20408;-81
2022/05/03 12:18:55;;;;;;;2.03;1.92;;;16.80;99.90;;;;;;4983655;28;20061;-81
2022/05/03 12:21:28;;;;;;;6.05;2.63;;;16.80;99.90;;;;;;4979493;28;20093;-82
2022/05/03 12:24:02;;;;;;;3.97;3.05;;;16.80;99.90;;;;;;4969256;28;20047;-83
2022/05/03 12:26:38;;;;;;;2.97;2.75;;;16.70;99.90;;;;;;4984295;28;20055;-79
2022/05/03 12:29:07;;;;;;;2.95;2.75;;;16.90;99.90;;;;;;4986275;28;20046;-81
2022/05/03 12:31:43;;;;;;;3.80;2.53;;;17.20;99.90;;;;;;4986913;28;20167;-83
2022/05/03 12:34:22;;;;;;;2.22;2.05;;;17.50;99.90;;;;;;4981156;28;20053;-80
2022/05/03 12:37:00;;;;;;;4.20;3.80;;;17.70;99.90;;;;;;4986924;28;20051;-81
2022/05/03 12:39:30;;;;;;;2.20;1.92;;;17.80;99.90;;;;;;4953779;28;20038;-82
2022/05/03 12:42:08;;;;;;;2.80;1.80;;;17.30;99.90;;;;;;4985981;28;20417;-80
2022/05/03 12:44:53;;;;;;;1.65;1.55;;;17.10;99.90;;;;;;4987755;28;20405;-81
2022/05/03 12:47:22;;;;;;;2.78;2.20;;;16.90;99.90;;;;;;4985026;28;20073;-81
2022/05/03 12:49:52;;;;;;;2.42;2.30;;;16.90;99.90;;;;;;4986259;28;20046;-82
2022/05/03 12:52:21;;;;;;;2.80;2.13;;;16.90;99.90;;;;;;4969614;28;20413;-81
2022/05/03 12:54:48;;;;;;;2.47;2.28;;;17.00;99.90;;;;;;5015053;28;20041;-80
2022/05/03 13:00:05;;;;;;;2.03;1.80;;;17.00;99.90;;;;;;5005212;28;20408;-79
2022/05/03 13:02:39;;;;;;;1.98;1.83;;;16.90;99.90;;;;;;5009778;28;20049;-80
2022/05/03 13:05:07;;;;;;;2.03;1.90;;;17.00;99.90;;;;;;4995375;28;20049;-81
2022/05/03 13:07:35;;;;;;;2.67;2.47;;;17.00;99.90;;;;;;5023520;28;20045;-81
2022/05/03 13:10:04;;;;;;;1.77;1.67;;;17.00;99.90;;;;;;5026712;28;20737;-82
2022/05/03 13:12:33;;;;;;;3.92;2.15;;;17.00;99.90;;;;;;5025989;28;20420;-80
2022/05/03 13:15:01;;;;;;;1.92;1.70;;;17.00;99.90;;;;;;5025456;28;20408;-81
2022/05/03 13:17:30;;;;;;;4.15;2.53;;;17.00;99.90;;;;;;4979381;28;20054;-80
2022/05/03 13:19:58;;;;;;;3.75;2.63;;;17.00;99.90;;;;;;5006147;28;20538;-80
2022/05/03 13:22:26;;;;;;;2.05;1.95;;;17.00;99.90;;;;;;4973590;28;20085;-81
2022/05/03 13:24:54;;;;;;;3.85;2.00;;;17.00;99.90;;;;;;5013541;28;20045;-77
2022/05/03 13:27:21;;;;;;;3.72;2.63;;;17.00;99.90;;;;;;5020969;28;20476;-80
2022/05/03 13:29:54;;;;;;;2.13;2.03;;;16.90;99.90;;;;;;5023290;28;20041;-78
2022/05/03 13:32:22;;;;;;;2.33;2.00;;;16.90;99.90;;;;;;5027610;28;20041;-80
2022/05/03 13:34:50;;;;;;;4.35;2.13;;;16.90;99.90;;;;;;5011097;28;20045;-80
2022/05/03 13:42:51;;;;;;;2.33;2.22;;;17.00;99.90;;;;;;4995465;28;20405;-86
2022/05/03 13:45:19;;;;;;;8.82;2.47;;;16.80;99.90;;;;;;4989538;28;20050;-86
2022/05/03 13:48:07;;;;;;;1.95;1.85;;;16.70;99.90;;;;;;4974291;28;20833;-86
2022/05/03 13:50:38;;;;;;;3.00;2.80;;;16.60;99.90;;;;;;4992506;28;20057;-81
2022/05/03 13:53:08;;;;;;;;;;;16.60;99.90;;;;;;5008435;28;20733;-81
2022/05/03 13:55:40;;;;;;;5.40;2.25;;;16.70;99.90;;;;;;4975633;28;20299;-80
2022/05/03 13:58:09;;;;;;;2.95;2.50;;;16.60;99.90;;;;;;4972053;28;20049;-80
2022/05/03 14:00:41;;;;;;;4.40;2.72;;;16.70;99.90;;;;;;4996145;28;20047;-80
2022/05/03 14:03:12;;;;;;;4.95;2.88;;;16.70;99.90;;;;;;5026651;28;20523;-80
2022/05/03 14:05:41;;;;;;;3.05;2.67;;;16.60;99.90;;;;;;4966609;28;20060;-81
2022/05/03 14:08:16;;;;;;;2.65;2.45;;;16.70;99.90;;;;;;5029070;28;20064;-84
2022/05/03 14:11:04;;;;;;;2.55;2.35;;;16.80;99.90;;;;;;4995897;28;20052;-82
2022/05/03 14:13:48;;;;;;;2.72;2.50;;;16.70;99.90;;;;;;5018436;28;20499;-87
2022/05/03 14:16:22;;;;;;;2.90;2.50;;;16.70;99.90;;;;;;4983858;28;20048;-79
2022/05/03 14:18:49;;;;;;;2.83;2.63;;;16.80;99.90;;;;;;5017046;28;20045;-79
2022/05/03 14:21:17;;;;;;;3.05;2.78;;;16.80;99.90;;;;;;5013740;28;20045;-79
2022/05/03 14:23:58;;;;;;;2.95;2.75;;;16.80;99.90;;;;;;5009749;28;20057;-79
2022/05/03 14:26:26;;;;;;;2.50;2.28;;;16.70;99.90;;;;;;5028141;28;20060;-78
2022/05/03 14:28:55;;;;;;;1.98;1.83;;;16.70;99.90;;;;;;5008384;28;20053;-78
2022/05/03 14:31:25;;;;;;;2.22;2.03;;;16.60;99.90;;;;;;4995105;28;20038;-79
2022/05/03 14:33:55;;;;;;;;;;;16.70;99.90;;;;;;5009700;28;20050;-79
2022/05/03 14:36:32;;;;;;;2.58;2.08;;;16.70;99.90;;;;;;5008744;28;19948;-79
2022/05/03 14:39:00;;;;;;;2.28;2.15;;;16.80;99.90;;;;;;5008718;28;20053;-79
2022/05/03 14:41:48;;;;;;;3.78;1.70;;;16.80;99.90;;;;;;5008293;28;20050;-78
2022/05/03 14:44:16;;;;;;;1.83;1.70;;;16.80;99.90;;;;;;5009284;28;20484;-78
2022/05/03 14:46:44;;;;;;;2.80;2.08;;;16.90;99.90;;;;;;5014518;28;20057;-80
2022/05/03 14:49:12;;;;;;;5.03;3.03;;;17.10;99.90;;;;;;5010438;28;20057;-79
2022/05/03 14:51:39;;;;;;;2.20;2.00;;;17.10;99.90;;;;;;5012258;28;20396;-74
2022/05/03 14:54:07;;;;;;;3.05;2.80;;;17.10;99.90;;;;;;5009199;28;20050;-73
2022/05/03 15:05:00;;;;;;;2.78;2.45;;;18.10;99.90;;;;;;5027209;28;20555;-87
2022/05/03 15:07:40;;;;;;;3.55;2.58;;;18.30;99.90;;;;;;5009575;28;20049;-87
2022/05/03 15:10:09;;;;;;;3.45;3.15;;;18.40;99.90;;;;;;4997488;28;20505;-83
2022/05/03 15:12:37;;;;;;;3.03;2.80;;;18.40;99.90;;;;;;4992452;28;20050;-90
2022/05/03 15:15:05;;;;;;;4.80;2.20;;;18.50;99.90;;;;;;5008939;28;20661;-80
2022/05/03 15:17:33;;;;;;;2.85;2.65;;;18.50;99.90;;;;;;4997186;28;20061;-81
2022/05/03 15:20:02;;;;;;;2.95;2.75;;;18.70;99.90;;;;;;5001406;28;20503;-81
2022/05/03 15:25:17;;;;;;;2.40;1.98;;;18.60;99.90;;;;;;5018192;28;20057;-90
2022/05/03 15:27:44;;;;;;;3.05;2.80;;;18.20;99.90;;;;;;4966467;28;20755;-81
2022/05/03 15:30:14;;;;;;;4.18;2.70;;;18.00;99.90;;;;;;5030048;28;20045;-86
2022/05/03 15:32:42;;;;;;;2.35;2.13;;;17.80;99.90;;;;;;5005205;28;20049;-84
2022/05/03 15:35:13;;;;;;;3.03;2.70;;;17.90;99.90;;;;;;4976169;28;20042;-84
2022/05/03 15:37:41;;;;;;;3.17;2.95;;;18.30;99.90;;;;;;5020930;28;20699;-85
2022/05/03 15:40:13;;;;;;;9.73;3.17;;;18.30;99.90;;;;;;4978419;28;20061;-86
2022/05/03 15:42:42;;;;;;;16.83;5.53;;;18.20;99.90;;;;;;4991744;28;20050;-81
2022/05/03 15:45:11;;;;;;;2.55;2.42;;;18.00;99.90;;;;;;4974948;28;20080;-81
2022/05/03 15:47:39;;;;;;;11.57;4.07;;;17.70;99.90;;;;;;5027155;28;20050;-79
2022/05/03 15:50:11;;;;;;;3.63;3.17;;;17.60;99.90;;;;;;5024943;28;20053;-80
2022/05/03 15:52:44;;;;;;;2.35;2.20;;;17.50;99.90;;;;;;4991448;28;20061;-80
2022/05/03 15:55:13;;;;;;;3.10;2.80;;;17.40;99.90;;;;;;5026741;28;20829;-79
2022/05/03 15:57:41;;;;;;;8.07;2.72;;;17.20;99.90;;;;;;5026973;28;20037;-80
2022/05/03 16:00:15;;;;;;;3.05;2.42;;;17.10;99.90;;;;;;5009686;28;20056;-80
2022/05/03 16:02:50;;;;;;;3.40;3.10;;;17.10;99.90;;;;;;5018112;28;20057;-81
2022/05/03 16:05:20;;;;;;;2.95;2.75;;;17.10;99.90;;;;;;5003183;28;20053;-81
2022/05/03 16:07:48;;;;;;;3.95;2.65;;;17.10;99.90;;;;;;4995496;28;20061;-80
2022/05/03 16:10:17;;;;;;;4.95;2.47;;;17.20;99.90;;;;;;5007208;28;20037;-80
2022/05/03 16:12:45;;;;;;;2.78;2.58;;;17.20;99.90;;;;;;5007957;28;20053;-80
2022/05/03 16:15:12;;;;;;;2.92;2.63;;;17.30;99.90;;;;;;5007433;28;20050;-77
2022/05/03 16:17:41;;;;;;;6.60;2.60;;;17.40;99.90;;;;;;5007120;28;20042;-81
2022/05/03 16:20:10;;;;;;;1.88;1.77;;;17.20;99.90;;;;;;5006942;28;20493;-80
2022/05/03 16:22:38;;;;;;;2.75;2.33;;;16.90;99.90;;;;;;5006873;28;20068;-80
2022/05/03 16:25:07;;;;;;;2.72;2.50;;;16.70;99.90;;;;;;4989792;28;20475;-80
2022/05/03 16:27:36;;;;;;;2.42;2.15;;;16.60;99.90;;;;;;5006617;28;20575;-80
2022/05/03 16:30:05;;;;;;;2.15;2.05;;;16.50;99.90;;;;;;5006017;28;20057;-79
2022/05/03 16:32:33;;;;;;;7.57;3.45;;;16.50;99.90;;;;;;5007102;28;20054;-80
2022/05/03 16:35:01;;;;;;;3.90;3.50;;;16.40;99.90;;;;;;5007203;28;20535;-85
2022/05/03 16:43:02;;;;;;;4.50;3.05;;;16.30;99.90;;;;;;4985532;28;20416;-83
2022/05/03 16:45:30;;;;;;;2.60;2.40;;;16.40;99.90;;;;;;4991193;28;20500;-83
2022/05/03 16:47:57;;;;;;;3.60;2.70;;;16.40;99.90;;;;;;4972041;28;20065;-84
2022/05/03 16:50:25;;;;;;;3.50;2.67;;;16.30;99.90;;;;;;4988440;28;20046;-85
2022/05/03 16:52:58;;;;;;;2.90;2.70;;;16.30;99.90;;;;;;4985245;28;20050;-84